createdAt,value
2024-01-11T00:02:04.134Z,12.98
2024-01-11T00:04:31.294Z,11.15
2024-01-11T00:06:58.601Z,11.73
2024-01-11T00:09:25.983Z,11.27
2024-01-11T00:11:53.198Z,12.48
2024-01-11T00:14:20.369Z,12.65
2024-01-11T00:16:47.551Z,9.50
2024-01-11T00:19:14.908Z,10.43
2024-01-11T00:21:42.484Z,10.98
2024-01-11T00:24:09.848Z,12.35
2024-01-11T00:26:37.948Z,11.23
2024-01-11T00:29:05.796Z,12.10
2024-01-11T00:31:33.095Z,12.68
2024-01-11T00:34:00.335Z,11.45
2024-01-11T00:36:27.684Z,12.23
2024-01-11T00:38:54.792Z,12.20
2024-01-11T00:41:21.983Z,12.07
2024-01-11T00:43:49.197Z,11.73
2024-01-11T00:46:16.283Z,10.88
2024-01-11T00:48:43.687Z,11.65
2024-01-11T00:51:11.077Z,10.80
2024-01-11T00:53:38.309Z,12.95
2024-01-11T00:56:05.566Z,12.18
2024-01-11T00:58:32.741Z,10.60
2024-01-11T01:00:59.869Z,10.65
2024-01-11T01:03:27.076Z,11.77
2024-01-11T01:05:54.431Z,12.32
2024-01-11T01:08:21.780Z,10.95
2024-01-11T01:10:48.941Z,13.45
2024-01-11T01:13:16.090Z,11.52
2024-01-11T01:15:43.525Z,12.38
2024-01-11T01:18:10.806Z,12.73
2024-01-11T01:20:38.052Z,14.48
2024-01-11T01:23:05.237Z,10.48
2024-01-11T01:25:33.673Z,12.50
2024-01-11T01:28:01.920Z,13.18
2024-01-11T01:30:29.367Z,13.60
2024-01-11T01:32:57.328Z,11.90
2024-01-11T01:35:24.721Z,12.95
2024-01-11T01:37:51.817Z,13.75
2024-01-11T01:40:18.915Z,9.48
2024-01-11T01:42:46.335Z,13.10
2024-01-11T01:45:13.752Z,12.40
2024-01-11T01:47:41.963Z,12.85
2024-01-11T01:50:09.992Z,13.38
2024-01-11T01:52:38.391Z,11.15
2024-01-11T01:55:07.338Z,12.98
2024-01-11T01:57:35.770Z,13.00
2024-01-11T02:00:03.532Z,12.45
2024-01-11T02:02:32.930Z,12.35
2024-01-11T02:05:00.182Z,12.48
2024-01-11T02:07:27.606Z,13.15
2024-01-11T02:09:54.852Z,13.00
2024-01-11T02:12:22.089Z,11.93
2024-01-11T02:14:49.472Z,11.68
2024-01-11T02:17:16.966Z,12.90
2024-01-11T02:19:44.574Z,10.88
2024-01-11T02:22:15.713Z,13.13
2024-01-11T02:24:42.855Z,12.57
2024-01-11T02:27:11.855Z,12.90
2024-01-11T02:29:39.210Z,13.57
2024-01-11T02:32:07.501Z,13.20
2024-01-11T02:34:35.074Z,12.02
2024-01-11T02:37:02.366Z,12.27
2024-01-11T02:39:29.578Z,12.63
2024-01-11T02:41:59.256Z,13.50
2024-01-11T02:44:26.622Z,10.45
2024-01-11T02:46:53.848Z,12.73
2024-01-11T02:49:21.146Z,12.25
2024-01-11T02:51:48.404Z,12.40
2024-01-11T02:54:15.529Z,12.98
2024-01-11T02:56:43.606Z,11.60
2024-01-11T02:59:11.025Z,10.80
2024-01-11T03:01:38.210Z,12.10
2024-01-11T03:04:06.126Z,12.00
2024-01-11T03:06:33.413Z,13.45
2024-01-11T03:09:00.568Z,11.55
2024-01-11T03:11:28.007Z,13.32
2024-01-11T03:13:56.608Z,13.07
2024-01-11T03:16:23.771Z,12.07
2024-01-11T03:18:50.974Z,13.90
2024-01-11T03:21:18.974Z,12.30
2024-01-11T03:23:46.107Z,11.38
2024-01-11T03:26:17.705Z,12.68
2024-01-11T03:28:45.367Z,10.95
2024-01-11T03:31:12.564Z,11.25
2024-01-11T03:33:39.923Z,12.73
2024-01-11T03:36:10.915Z,13.95
2024-01-11T03:38:38.111Z,12.85
2024-01-11T03:41:11.864Z,13.10
2024-01-11T03:43:39.384Z,11.98
2024-01-11T03:46:06.564Z,13.10
2024-01-11T03:48:33.841Z,12.38
2024-01-11T03:51:01.028Z,13.40
2024-01-11T03:53:28.268Z,11.23
2024-01-11T03:55:55.769Z,12.18
2024-01-11T03:58:23.819Z,11.88
2024-01-11T04:00:51.365Z,10.82
2024-01-11T04:03:18.664Z,12.30
2024-01-11T04:05:45.977Z,12.80
2024-01-11T04:08:13.254Z,13.32
2024-01-11T04:10:40.470Z,13.82
2024-01-11T04:13:08.832Z,13.13
2024-01-11T04:15:35.943Z,11.55
2024-01-11T04:18:03.331Z,13.10
2024-01-11T04:20:30.702Z,10.13
2024-01-11T04:22:57.942Z,10.95
2024-01-11T04:25:25.052Z,12.85
2024-01-11T04:27:52.217Z,12.00
2024-01-11T04:30:19.467Z,11.32
2024-01-11T04:32:46.607Z,11.02
2024-01-11T04:35:13.846Z,12.13
2024-01-11T04:37:41.310Z,12.10
2024-01-11T04:40:08.963Z,12.63
2024-01-11T04:42:36.084Z,11.32
2024-01-11T04:45:03.315Z,16.48
2024-01-11T04:47:30.775Z,11.70
2024-01-11T04:49:57.958Z,13.02
2024-01-11T04:52:25.131Z,12.35
2024-01-11T04:54:52.242Z,13.18
2024-01-11T04:57:19.441Z,13.00
2024-01-11T04:59:46.652Z,10.23
2024-01-11T05:02:13.803Z,11.23
2024-01-11T05:04:40.908Z,12.18
2024-01-11T05:07:08.011Z,13.07
2024-01-11T05:09:35.405Z,13.77
2024-01-11T05:12:02.584Z,14.13
2024-01-11T05:14:29.819Z,12.60
2024-01-11T05:16:57.217Z,11.95
2024-01-11T05:19:24.687Z,11.48
2024-01-11T05:21:51.869Z,12.75
2024-01-11T05:24:18.996Z,12.20
2024-01-11T05:26:46.168Z,13.63
2024-01-11T05:29:13.483Z,13.40
2024-01-11T05:31:40.815Z,12.43
2024-01-11T05:34:08.319Z,13.63
2024-01-11T05:36:35.525Z,12.80
2024-01-11T05:39:02.718Z,11.90
2024-01-11T05:41:29.873Z,13.75
2024-01-11T05:43:57.092Z,9.90
2024-01-11T05:46:24.327Z,10.85
2024-01-11T05:48:51.498Z,11.07
2024-01-11T05:51:18.703Z,12.57
2024-01-11T05:53:45.962Z,12.65
2024-01-11T05:56:13.280Z,12.63
2024-01-11T05:58:41.388Z,12.73
2024-01-11T06:01:08.913Z,13.85
2024-01-11T06:03:36.391Z,12.45
2024-01-11T06:06:04.739Z,11.73
2024-01-11T06:08:32.198Z,14.02
2024-01-11T06:10:59.909Z,12.88
2024-01-11T06:13:27.515Z,13.13
2024-01-11T06:15:54.866Z,13.45
2024-01-11T06:18:22.382Z,12.27
2024-01-11T06:20:49.723Z,13.63
2024-01-11T06:23:18.106Z,14.15
2024-01-11T06:25:47.353Z,13.75
2024-01-11T06:28:14.732Z,13.15
2024-01-11T06:30:42.190Z,14.77
2024-01-11T06:33:09.549Z,12.18
2024-01-11T06:35:36.845Z,13.07
2024-01-11T06:38:04.205Z,13.00
2024-01-11T06:40:31.511Z,15.52
2024-01-11T06:42:58.851Z,13.85
2024-01-11T06:45:26.013Z,13.13
2024-01-11T06:47:53.374Z,14.57
2024-01-11T06:50:20.602Z,13.90
2024-01-11T06:52:47.753Z,12.38
2024-01-11T06:55:14.928Z,14.60
2024-01-11T06:57:42.182Z,14.88
2024-01-11T07:00:09.764Z,14.23
2024-01-11T07:02:37.129Z,15.80
2024-01-11T07:05:04.499Z,13.60
2024-01-11T07:07:31.785Z,16.17
2024-01-11T07:09:58.900Z,13.95
2024-01-11T07:12:26.756Z,14.02
2024-01-11T07:14:53.969Z,13.68
2024-01-11T07:17:21.179Z,12.45
2024-01-11T07:19:48.492Z,13.30
2024-01-11T07:22:15.629Z,14.88
2024-01-11T07:24:43.675Z,14.82
2024-01-11T07:27:10.833Z,13.77
2024-01-11T07:29:38.040Z,14.85
2024-01-11T07:32:05.667Z,12.30
2024-01-11T07:34:33.170Z,15.20
2024-01-11T07:37:00.349Z,13.73
2024-01-11T07:39:27.573Z,16.27
2024-01-11T07:41:54.718Z,15.30
2024-01-11T07:44:22.136Z,16.60
2024-01-11T07:46:53.541Z,13.10
2024-01-11T07:49:22.521Z,14.93
2024-01-11T07:51:50.188Z,15.98
2024-01-11T07:54:17.478Z,14.82
2024-01-11T07:56:44.825Z,16.05
2024-01-11T07:59:15.998Z,15.40
2024-01-11T08:01:43.816Z,16.77
2024-01-11T08:04:11.211Z,17.15
2024-01-11T08:06:38.954Z,13.80
2024-01-11T08:09:06.668Z,16.55
2024-01-11T08:11:36.488Z,15.68
2024-01-11T08:14:06.657Z,15.52
2024-01-11T08:16:34.290Z,15.80
2024-01-11T08:19:02.212Z,14.80
2024-01-11T08:21:29.906Z,16.13
2024-01-11T08:24:01.560Z,16.75
2024-01-11T08:26:31.346Z,16.95
2024-01-11T08:28:58.795Z,15.75
2024-01-11T08:31:26.294Z,17.15
2024-01-11T08:33:53.694Z,20.85
2024-01-11T08:36:21.476Z,21.13
2024-01-11T08:38:48.926Z,19.10
2024-01-11T08:41:16.384Z,17.90
2024-01-11T08:43:43.665Z,15.57
2024-01-11T08:46:10.816Z,16.20
2024-01-11T08:48:38.142Z,16.58
2024-01-11T08:51:05.736Z,16.58
2024-01-11T08:53:32.934Z,16.58
2024-01-11T08:56:00.212Z,16.05
2024-01-11T08:58:27.807Z,15.20
2024-01-11T09:00:55.194Z,15.88
2024-01-11T09:03:22.615Z,16.35
2024-01-11T09:05:49.979Z,16.45
2024-01-11T09:08:17.250Z,16.30
2024-01-11T09:10:45.160Z,15.50
2024-01-11T09:13:14.769Z,16.60
2024-01-11T09:15:42.233Z,17.38
2024-01-11T09:18:09.691Z,17.20
2024-01-11T09:20:37.079Z,17.75
2024-01-11T09:23:04.946Z,16.67
2024-01-11T09:25:32.628Z,16.90
2024-01-11T09:28:00.103Z,16.63
2024-01-11T09:30:27.357Z,15.73
2024-01-11T09:32:54.803Z,14.93
2024-01-11T09:35:22.045Z,15.45
2024-01-11T09:37:49.198Z,15.10
2024-01-11T09:40:17.092Z,15.73
2024-01-11T09:42:44.662Z,16.38
2024-01-11T09:45:14.376Z,15.98
2024-01-11T09:47:41.966Z,16.85
2024-01-11T09:50:09.698Z,16.05
2024-01-11T09:52:39.294Z,16.38
2024-01-11T09:55:07.036Z,15.55
2024-01-11T09:57:34.773Z,15.55
2024-01-11T10:00:08.734Z,15.68
2024-01-11T10:02:36.063Z,14.75
2024-01-11T10:05:04.238Z,14.77
2024-01-11T10:07:32.356Z,16.08
2024-01-11T10:09:59.863Z,14.63
2024-01-11T10:12:27.066Z,13.40
2024-01-11T10:14:54.568Z,14.70
2024-01-11T10:17:24.437Z,16.58
2024-01-11T10:19:55.751Z,15.07
2024-01-11T10:22:26.118Z,13.77
2024-01-11T10:25:09.534Z,16.27
2024-01-11T10:27:36.667Z,14.00
2024-01-11T10:30:03.941Z,14.25
2024-01-11T10:32:31.229Z,14.23
2024-01-11T10:34:58.414Z,14.13
2024-01-11T10:37:25.788Z,14.73
2024-01-11T10:39:53.341Z,14.10
2024-01-11T10:42:23.092Z,14.77
2024-01-11T10:44:51.875Z,13.27
2024-01-11T10:47:20.082Z,13.30
2024-01-11T10:49:48.809Z,13.73
2024-01-11T10:52:16.886Z,13.98
2024-01-11T10:54:44.496Z,13.45
2024-01-11T10:57:12.003Z,14.15
2024-01-11T10:59:41.447Z,12.30
2024-01-11T11:02:13.837Z,14.82
2024-01-11T11:04:42.033Z,13.60
2024-01-11T11:07:10.096Z,12.70
2024-01-11T11:09:37.363Z,13.10
2024-01-11T11:12:05.604Z,12.40
2024-01-11T11:14:33.575Z,13.60
2024-01-11T11:17:00.861Z,13.20
2024-01-11T11:19:28.097Z,12.38
2024-01-11T11:21:55.236Z,14.43
2024-01-11T11:24:22.427Z,13.70
2024-01-11T11:26:49.656Z,12.77
2024-01-11T11:29:17.887Z,12.40
2024-01-11T11:31:55.167Z,13.10
2024-01-11T11:34:22.724Z,13.35
2024-01-11T11:36:55.898Z,12.02
2024-01-11T11:39:23.150Z,13.68
2024-01-11T11:41:51.125Z,12.00
2024-01-11T11:44:18.716Z,11.93
2024-01-11T11:46:47.669Z,12.95
2024-01-11T11:49:15.403Z,13.27
2024-01-11T11:51:44.903Z,12.07
2024-01-11T11:54:12.367Z,12.32
2024-01-11T11:56:39.645Z,12.82
2024-01-11T11:59:08.613Z,12.45
2024-01-11T12:01:37.150Z,12.65
2024-01-11T12:04:04.312Z,11.93
2024-01-11T12:06:31.587Z,12.57
2024-01-11T12:08:59.112Z,11.20
2024-01-11T12:11:27.179Z,10.90
2024-01-11T12:13:57.274Z,11.13
2024-01-11T12:16:24.640Z,12.85
2024-01-11T12:18:52.003Z,11.70
2024-01-11T12:21:19.404Z,12.00
2024-01-11T12:23:49.901Z,12.43
2024-01-11T12:26:23.176Z,11.50
2024-01-11T12:28:51.371Z,11.48
2024-01-11T12:31:20.911Z,11.45
2024-01-11T12:33:49.174Z,12.20
2024-01-11T12:36:16.824Z,12.48
2024-01-11T12:38:53.381Z,10.68
2024-01-11T12:41:22.298Z,11.68
2024-01-11T12:43:49.535Z,11.23
2024-01-11T12:46:16.861Z,10.45
2024-01-11T12:48:44.292Z,11.10
2024-01-11T12:51:17.517Z,11.30
2024-01-11T12:53:50.080Z,11.18
2024-01-11T12:56:17.959Z,11.80
2024-01-11T12:58:47.760Z,11.68
2024-01-11T13:01:15.417Z,10.05
2024-01-11T13:03:46.840Z,10.07
2024-01-11T13:06:14.787Z,11.27
2024-01-11T13:08:42.808Z,10.82
2024-01-11T13:11:10.579Z,10.73
2024-01-11T13:13:37.943Z,10.52
2024-01-11T13:16:07.176Z,12.00
2024-01-11T13:18:34.792Z,10.88
2024-01-11T13:21:04.007Z,12.07
2024-01-11T13:23:32.232Z,10.38
2024-01-11T13:25:59.525Z,10.40
2024-01-11T13:28:28.044Z,11.48
2024-01-11T13:30:55.382Z,11.75
2024-01-11T13:33:25.125Z,11.02
2024-01-11T13:35:52.720Z,12.10
2024-01-11T13:38:22.603Z,11.80
2024-01-11T13:40:51.586Z,10.13
2024-01-11T13:43:18.709Z,11.55
2024-01-11T13:45:46.090Z,11.05
2024-01-11T13:48:13.437Z,10.07
2024-01-11T13:50:40.836Z,9.80
2024-01-11T13:53:08.091Z,11.20
2024-01-11T13:55:41.933Z,10.40
2024-01-11T13:58:09.508Z,12.00
2024-01-11T14:00:36.942Z,10.55
2024-01-11T14:03:06.438Z,11.35
2024-01-11T14:05:34.144Z,11.05
2024-01-11T14:08:02.433Z,12.50
2024-01-11T14:10:29.870Z,9.93
2024-01-11T14:12:57.041Z,11.60
2024-01-11T14:15:25.145Z,11.52
2024-01-11T14:17:52.433Z,12.10
2024-01-11T14:20:20.113Z,11.18
2024-01-11T14:22:50.796Z,13.32
2024-01-11T14:25:18.561Z,13.00
2024-01-11T14:27:45.699Z,13.23
2024-01-11T14:30:13.776Z,14.00
2024-01-11T14:32:42.389Z,11.88
2024-01-11T14:35:10.711Z,12.52
2024-01-11T14:37:39.091Z,13.02
2024-01-11T14:40:07.053Z,12.02
2024-01-11T14:42:34.753Z,14.52
2024-01-11T14:45:02.253Z,13.88
2024-01-11T14:47:29.666Z,12.95
2024-01-11T14:49:56.948Z,12.70
2024-01-11T14:52:24.125Z,13.07
2024-01-11T14:54:51.597Z,12.82
2024-01-11T14:57:19.016Z,12.35
2024-01-11T14:59:46.180Z,13.07
2024-01-11T15:02:13.617Z,12.60
2024-01-11T15:04:40.832Z,12.43
2024-01-11T15:07:08.173Z,12.82
2024-01-11T15:09:39.100Z,14.95
2024-01-11T15:12:08.415Z,13.93
2024-01-11T15:14:35.720Z,12.57
2024-01-11T15:17:03.657Z,12.25
2024-01-11T15:19:31.752Z,13.02
2024-01-11T15:21:59.025Z,14.20
2024-01-11T15:24:26.184Z,12.50
2024-01-11T15:26:53.436Z,13.43
2024-01-11T15:29:21.097Z,12.40
2024-01-11T15:31:50.381Z,12.50
2024-01-11T15:34:18.185Z,12.38
2024-01-11T15:36:45.714Z,12.18
2024-01-11T15:39:20.932Z,12.52
2024-01-11T15:41:55.893Z,12.07
2024-01-11T15:44:24.470Z,12.32
2024-01-11T15:46:51.820Z,13.63
2024-01-11T15:49:19.110Z,12.60
2024-01-11T15:51:46.368Z,12.98
2024-01-11T15:54:13.486Z,11.60
2024-01-11T15:56:40.774Z,11.60
2024-01-11T15:59:08.653Z,11.27
2024-01-11T16:01:46.520Z,10.80
2024-01-11T16:04:22.919Z,11.52
2024-01-11T16:06:50.230Z,12.93
2024-01-11T16:09:17.558Z,12.30
2024-01-11T16:11:46.117Z,11.63
2024-01-11T16:14:13.519Z,14.18
2024-01-11T16:16:41.409Z,13.35
2024-01-11T16:19:08.660Z,13.35
2024-01-11T16:21:35.855Z,12.35
2024-01-11T16:24:03.797Z,12.27
2024-01-11T16:26:31.313Z,12.60
2024-01-11T16:28:58.710Z,11.80
2024-01-11T16:31:26.075Z,13.88
2024-01-11T16:33:54.254Z,12.07
2024-01-11T16:36:21.997Z,13.23
2024-01-11T16:38:49.506Z,12.18
2024-01-11T16:41:17.074Z,12.05
2024-01-11T16:43:45.579Z,12.95
2024-01-11T16:46:22.339Z,13.45
2024-01-11T16:48:50.645Z,12.73
2024-01-11T16:51:17.876Z,12.00
2024-01-11T16:53:45.384Z,12.32
2024-01-11T16:56:12.733Z,12.10
2024-01-11T16:58:40.028Z,13.45
2024-01-11T17:01:07.487Z,11.90
2024-01-11T17:03:34.857Z,13.07
2024-01-11T17:06:02.155Z,13.23
2024-01-11T17:08:30.463Z,15.95
2024-01-11T17:10:57.988Z,13.48
2024-01-11T17:13:25.231Z,13.02
2024-01-11T17:15:53.763Z,13.43
2024-01-11T17:18:21.367Z,13.85
2024-01-11T17:20:55.270Z,13.75
2024-01-11T17:23:22.466Z,15.05
2024-01-11T17:25:49.609Z,15.88
2024-01-11T17:28:16.840Z,14.95
2024-01-11T17:30:44.088Z,14.85
2024-01-11T17:33:11.578Z,15.43
2024-01-11T17:35:38.861Z,14.48
2024-01-11T17:38:06.113Z,15.00
2024-01-11T17:40:34.672Z,14.27
2024-01-11T17:43:03.332Z,13.77
2024-01-11T17:45:30.435Z,14.43
2024-01-11T17:47:58.186Z,14.43
2024-01-11T17:50:26.037Z,14.93
2024-01-11T17:52:53.319Z,15.65
2024-01-11T17:55:21.669Z,12.48
2024-01-11T17:57:48.941Z,13.35
2024-01-11T18:00:16.269Z,12.85
2024-01-11T18:02:43.483Z,14.15
2024-01-11T18:05:11.198Z,14.73
2024-01-11T18:07:38.544Z,14.68
2024-01-11T18:10:06.278Z,13.60
2024-01-11T18:12:33.487Z,13.63
2024-01-11T18:15:00.916Z,14.25
2024-01-11T18:17:28.449Z,14.23
2024-01-11T18:19:55.807Z,13.05
2024-01-11T18:22:25.045Z,13.25
2024-01-11T18:24:52.336Z,14.45
2024-01-11T18:27:20.891Z,13.48
2024-01-11T18:29:48.156Z,14.00
2024-01-11T18:32:15.374Z,14.13
2024-01-11T18:34:42.666Z,14.38
2024-01-11T18:37:09.809Z,13.82
2024-01-11T18:39:36.951Z,13.13
2024-01-11T18:42:04.404Z,13.00
2024-01-11T18:44:31.792Z,13.88
2024-01-11T18:46:58.994Z,14.43
2024-01-11T18:49:26.167Z,13.95
2024-01-11T18:51:53.391Z,13.45
2024-01-11T18:54:20.555Z,15.07
2024-01-11T18:56:47.823Z,13.18
2024-01-11T18:59:15.253Z,14.35
2024-01-11T19:01:47.957Z,15.32
2024-01-11T19:04:15.827Z,13.68
2024-01-11T19:06:45.994Z,14.45
2024-01-11T19:09:13.392Z,14.65
2024-01-11T19:11:40.750Z,14.30
2024-01-11T19:14:10.703Z,13.55
2024-01-11T19:16:38.202Z,16.30
2024-01-11T19:19:05.644Z,15.15
2024-01-11T19:21:32.828Z,13.85
2024-01-11T19:24:00.076Z,14.30
2024-01-11T19:26:27.352Z,14.23
2024-01-11T19:28:54.946Z,14.50
2024-01-11T19:31:22.245Z,13.68
2024-01-11T19:33:49.796Z,13.63
2024-01-11T19:36:16.979Z,13.45
2024-01-11T19:38:44.858Z,14.35
2024-01-11T19:41:12.036Z,14.27
2024-01-11T19:43:46.650Z,14.40
2024-01-11T19:46:17.970Z,14.68
2024-01-11T19:48:45.287Z,13.80
2024-01-11T19:51:12.866Z,15.02
2024-01-11T19:53:40.252Z,15.48
2024-01-11T19:56:16.711Z,15.38
2024-01-11T19:58:44.062Z,14.95
2024-01-11T20:01:11.561Z,16.48
2024-01-11T20:03:39.884Z,14.68
2024-01-11T20:06:07.957Z,15.57
2024-01-11T20:08:38.542Z,16.33
2024-01-11T20:11:07.915Z,14.90
2024-01-11T20:13:35.049Z,15.10
2024-01-11T20:16:02.739Z,15.18
2024-01-11T20:18:30.727Z,15.73
2024-01-11T20:20:58.883Z,16.63
2024-01-11T20:23:26.287Z,15.60
2024-01-11T20:25:53.897Z,17.30
2024-01-11T20:28:21.133Z,17.25
2024-01-11T20:30:48.750Z,17.27
2024-01-11T20:33:16.495Z,16.63
2024-01-11T20:35:43.897Z,16.58
2024-01-11T20:38:11.156Z,16.10
2024-01-11T20:40:38.358Z,17.25
2024-01-11T20:43:07.380Z,20.73
2024-01-11T20:45:34.570Z,23.33
2024-01-11T20:48:02.051Z,21.48
2024-01-11T20:50:30.829Z,19.17
2024-01-11T20:52:58.868Z,18.20
2024-01-11T20:55:25.986Z,18.30
2024-01-11T20:57:53.155Z,19.20
2024-01-11T21:00:20.401Z,17.73
2024-01-11T21:02:47.711Z,17.73
2024-01-11T21:05:15.073Z,18.55
2024-01-11T21:07:42.290Z,18.00
2024-01-11T21:10:09.568Z,17.55
2024-01-11T21:12:36.698Z,16.83
2024-01-11T21:15:04.197Z,19.23
2024-01-11T21:17:31.644Z,18.52
2024-01-11T21:19:58.932Z,17.77
2024-01-11T21:22:26.096Z,19.20
2024-01-11T21:24:54.357Z,17.98
2024-01-11T21:27:22.323Z,21.25
2024-01-11T21:29:49.728Z,18.92
2024-01-11T21:32:17.000Z,19.63
2024-01-11T21:34:44.594Z,21.13
2024-01-11T21:37:11.908Z,21.00
2024-01-11T21:39:38.974Z,23.88
2024-01-11T21:42:06.191Z,23.42
2024-01-11T21:44:33.342Z,22.20
2024-01-11T21:47:00.529Z,21.00
2024-01-11T21:49:27.698Z,19.95
2024-01-11T21:51:54.950Z,19.08
2024-01-11T21:54:24.093Z,19.38
2024-01-11T21:56:51.598Z,18.77
2024-01-11T21:59:18.907Z,18.35
2024-01-11T22:01:46.089Z,19.13
2024-01-11T22:04:13.573Z,20.75
2024-01-11T22:06:41.003Z,21.02
2024-01-11T22:09:08.120Z,19.38
2024-01-11T22:11:35.997Z,21.20
2024-01-11T22:14:03.594Z,20.42
2024-01-11T22:16:31.673Z,19.73
2024-01-11T22:18:59.019Z,20.70
2024-01-11T22:21:29.041Z,20.67
2024-01-11T22:23:57.225Z,19.33
2024-01-11T22:26:25.938Z,20.60
2024-01-11T22:28:53.139Z,19.67
2024-01-11T22:31:22.261Z,19.25
2024-01-11T22:33:49.603Z,20.55
2024-01-11T22:36:16.841Z,20.73
2024-01-11T22:38:44.047Z,18.88
2024-01-11T22:41:11.248Z,20.65
2024-01-11T22:43:38.556Z,19.50
2024-01-11T22:46:05.833Z,22.38
2024-01-11T22:48:33.413Z,19.60
2024-01-11T22:51:00.766Z,20.38
2024-01-11T22:53:27.947Z,19.35
2024-01-11T22:55:55.129Z,19.00
2024-01-11T22:58:22.252Z,21.08
2024-01-11T23:00:50.928Z,20.55
2024-01-11T23:03:20.303Z,18.88
2024-01-11T23:05:47.506Z,20.30
2024-01-11T23:08:14.730Z,20.67
2024-01-11T23:10:41.949Z,22.15
2024-01-11T23:13:09.113Z,21.10
2024-01-11T23:15:36.211Z,19.70
2024-01-11T23:18:03.452Z,20.15
2024-01-11T23:20:30.790Z,19.58
2024-01-11T23:22:57.971Z,19.33
2024-01-11T23:25:25.092Z,19.38
2024-01-11T23:27:52.348Z,21.25
2024-01-11T23:30:19.503Z,19.65
2024-01-11T23:32:46.775Z,20.00
2024-01-11T23:35:13.938Z,18.25
2024-01-11T23:37:41.043Z,18.10
2024-01-11T23:40:08.732Z,17.42
2024-01-11T23:42:35.896Z,17.42
2024-01-11T23:45:03.845Z,17.13
2024-01-11T23:47:33.712Z,16.05
2024-01-11T23:50:01.294Z,16.80
2024-01-11T23:52:30.148Z,15.65
2024-01-11T23:54:57.356Z,18.30
2024-01-11T23:57:24.468Z,19.17
2024-01-11T23:59:51.726Z,17.67
